Portada
METAR-TAF:

METAR-TAF

Aeroports :

Franklin Municipal-John Beverly Rose Airport

Franklin, Virgínia, Estats Units d'Amèrica

latitud: 36-42N, longitud: 076-54W, altitud: 12 m

Observació

L'informe es va fer fa 14 minuts, a les 12:55 UTC
Vent calma
Temperatura 6°C
Humitat 100%
Pressió 1012 hPa
Visibilitat: 8.0 km
Cel cobert a una alçada de 400 ft
boirina

METAR: KFKN 191255Z AUTO 00000KT 5SM BR OVC004 06/06 A2988 RMK AO2 T00610058

Hora: 08:09 (13:09 UTC)


TAF: manca

Observacions i pronòstics meteorològics de més de 4000 aeroports (METAR i TAF).

Les estacions disponibles són els punts grocs i vermells al mapa.

Posi el ratolí al punt desitjat per veure el nom de l'estació.

Feu clic per veure les observacions i els pronòstics meteorològics.

Per canviar el mapa: feu clic els botons verds amb una creu de color negre per apropar; al botó verd amb un guió per allunyar la imatge; o en les fletxes verdes per a mapes adjacents.


METAR-TAF: